Bethel, Connecticut
Current Conditions -  °F | °C
As of 7:53 AM on Friday 19 Dec 2014 (Local Time) from KDXR Reporting Station
Overcast Overcast  
Wind Chill: 27°   Ceiling: 3500
Heat Index: 33°   Visibility: 10mi
Dew Point: 22°   Wind: 7mph
Humidity: 64%   Direction: 320°NW
Pressure: 30"   Gusts: NA
Location:  41.37°N, 73.41°W
Report Text: KDXR 191253Z 32006KT 10SM OVC035 01/M06 A3000 RMK AO2 SLP161 T00061056
Loading
Personal Weather Stations






























Interactive Weather Map New forecast layout! Learn more

10-Day Weather Forecast

Advertisements
Track Severe Weather on mobile